createdAt,value
2019-04-04T00:01:48.934Z,6.41
2019-04-04T00:04:17.554Z,6.36
2019-04-04T00:06:46.384Z,6.32
2019-04-04T00:09:15.018Z,6.23
2019-04-04T00:11:43.650Z,6.18
2019-04-04T00:14:13.616Z,6.10
2019-04-04T00:16:42.253Z,6.07
2019-04-04T00:19:10.883Z,6.02
2019-04-04T00:21:39.802Z,5.97
2019-04-04T00:24:09.136Z,5.92
2019-04-04T00:26:38.382Z,5.89
2019-04-04T00:29:08.902Z,5.86
2019-04-04T00:31:37.533Z,5.83
2019-04-04T00:34:06.162Z,5.81
2019-04-04T00:36:34.860Z,5.84
2019-04-04T00:39:05.233Z,5.79
2019-04-04T00:41:33.856Z,5.79
2019-04-04T00:44:02.511Z,5.80
2019-04-04T00:46:31.500Z,5.76
2019-04-04T00:49:00.138Z,5.75
2019-04-04T00:51:28.819Z,5.79
2019-04-04T00:53:57.436Z,5.74
2019-04-04T00:56:26.060Z,5.71
2019-04-04T00:58:54.741Z,5.71
2019-04-04T01:01:26.043Z,5.67
2019-04-04T01:03:53.710Z,5.64
2019-04-04T01:06:22.466Z,5.57
2019-04-04T01:08:51.098Z,5.54
2019-04-04T01:11:20.402Z,5.48
2019-04-04T01:13:49.677Z,5.43
2019-04-04T01:16:18.304Z,5.38
2019-04-04T01:18:46.935Z,5.36
2019-04-04T01:21:15.591Z,5.27
2019-04-04T01:23:44.332Z,5.25
2019-04-04T01:26:12.957Z,5.09
2019-04-04T01:28:41.616Z,5.04
2019-04-04T01:31:10.250Z,5.07
2019-04-04T01:33:38.874Z,5.07
2019-04-04T01:36:07.538Z,5.01
2019-04-04T01:38:36.169Z,4.96
2019-04-04T01:41:05.187Z,5.00
2019-04-04T01:43:34.020Z,4.93
2019-04-04T01:46:02.579Z,4.81
2019-04-04T01:48:31.202Z,4.80
2019-04-04T01:50:59.811Z,4.75
2019-04-04T01:53:30.183Z,4.64
2019-04-04T01:55:59.622Z,4.62
2019-04-04T01:58:28.291Z,4.56
2019-04-04T02:00:56.849Z,4.52
2019-04-04T02:03:25.408Z,4.45
2019-04-04T02:05:54.327Z,4.46
2019-04-04T02:08:22.964Z,4.47
2019-04-04T02:10:51.450Z,4.46
2019-04-04T02:13:20.058Z,4.45
2019-04-04T02:15:48.685Z,4.36
2019-04-04T02:18:17.307Z,4.41
2019-04-04T02:20:46.137Z,4.44
2019-04-04T02:23:14.633Z,4.37
2019-04-04T02:25:43.259Z,4.35
2019-04-04T02:28:11.794Z,4.35
2019-04-04T02:30:40.439Z,4.33
2019-04-04T02:33:09.284Z,4.40
2019-04-04T02:35:37.810Z,4.37
2019-04-04T02:38:06.363Z,4.35
2019-04-04T02:40:34.989Z,4.41
2019-04-04T02:43:03.855Z,4.40
2019-04-04T02:45:32.344Z,4.46
2019-04-04T02:48:00.894Z,4.45
2019-04-04T02:50:34.508Z,4.43
2019-04-04T02:52:59.920Z,4.39
2019-04-04T02:55:31.012Z,4.40
2019-04-04T02:57:58.971Z,4.41
2019-04-04T03:00:27.880Z,4.39
2019-04-04T03:02:56.593Z,4.47
2019-04-04T03:05:25.174Z,4.39
2019-04-04T03:07:53.800Z,4.37
2019-04-04T03:10:22.371Z,4.28
2019-04-04T03:12:50.973Z,4.30
2019-04-04T03:15:19.604Z,4.30
2019-04-04T03:17:48.339Z,4.23
2019-04-04T03:20:17.596Z,4.21
2019-04-04T03:22:46.418Z,4.19
2019-04-04T03:25:15.714Z,4.27
2019-04-04T03:27:44.538Z,4.17
2019-04-04T03:30:16.217Z,4.09
2019-04-04T03:32:51.457Z,4.25
2019-04-04T03:35:13.981Z,4.20
2019-04-04T03:37:46.022Z,4.18
2019-04-04T03:40:13.070Z,4.14
2019-04-04T03:42:44.289Z,4.22
2019-04-04T03:45:12.323Z,4.33
2019-04-04T03:47:44.536Z,4.35
2019-04-04T03:50:11.457Z,4.32
2019-04-04T03:52:43.388Z,4.23
2019-04-04T03:55:10.599Z,4.18
2019-04-04T03:57:39.204Z,4.27
2019-04-04T04:00:09.055Z,4.11
2019-04-04T04:02:37.663Z,4.19
2019-04-04T04:05:18.140Z,4.11
2019-04-04T04:07:48.104Z,4.16
2019-04-04T04:10:16.975Z,4.19
2019-04-04T04:12:45.648Z,4.18
2019-04-04T04:15:14.219Z,4.08
2019-04-04T04:17:45.518Z,4.18
2019-04-04T04:20:13.571Z,4.23
2019-04-04T04:22:42.198Z,4.27
2019-04-04T04:25:10.844Z,4.21
2019-04-04T04:27:39.387Z,4.22
2019-04-04T04:30:08.744Z,4.20
2019-04-04T04:32:37.663Z,4.16
2019-04-04T04:35:08.596Z,4.19
2019-04-04T04:37:37.144Z,4.32
2019-04-04T04:40:06.572Z,4.30
2019-04-04T04:42:35.411Z,4.35
2019-04-04T04:45:05.548Z,4.31
2019-04-04T04:47:34.042Z,4.34
2019-04-04T04:50:02.922Z,4.32
2019-04-04T04:52:31.567Z,4.28
2019-04-04T04:55:00.063Z,4.29
2019-04-04T04:57:30.244Z,4.56
2019-04-04T04:59:58.982Z,4.68
2019-04-04T05:02:27.603Z,4.96
2019-04-04T05:04:59.022Z,4.89
2019-04-04T05:07:26.601Z,5.16
2019-04-04T05:09:55.087Z,5.24
2019-04-04T05:12:23.844Z,5.45
2019-04-04T05:14:52.468Z,5.18
2019-04-04T05:17:21.100Z,5.18
2019-04-04T05:19:50.186Z,5.09
2019-04-04T05:22:19.161Z,5.16
2019-04-04T05:25:06.849Z,5.01
2019-04-04T05:27:18.125Z,5.03
2019-04-04T05:29:46.631Z,5.10
2019-04-04T05:32:15.088Z,5.19
2019-04-04T05:34:43.756Z,5.16
2019-04-04T05:37:12.379Z,4.97
2019-04-04T05:39:40.870Z,4.98
2019-04-04T05:42:09.502Z,4.84
2019-04-04T05:44:41.297Z,4.86
2019-04-04T05:47:08.375Z,4.97
2019-04-04T05:49:38.194Z,4.93
2019-04-04T05:52:08.968Z,5.05
2019-04-04T05:54:39.053Z,5.35
2019-04-04T05:57:08.389Z,5.39
2019-04-04T05:59:37.034Z,5.71
2019-04-04T06:02:05.677Z,5.83
2019-04-04T06:04:34.434Z,6.22
2019-04-04T06:07:04.288Z,6.49
2019-04-04T06:09:33.372Z,6.65
2019-04-04T06:12:02.048Z,6.82
2019-04-04T06:14:30.707Z,6.58
2019-04-04T06:16:59.216Z,6.49
2019-04-04T06:19:28.103Z,7.11
2019-04-04T06:21:56.751Z,7.20
2019-04-04T06:24:27.273Z,7.23
2019-04-04T06:26:55.635Z,8.06
2019-04-04T06:29:24.132Z,8.07
2019-04-04T06:31:52.618Z,8.26
2019-04-04T06:34:23.953Z,8.48
2019-04-04T06:36:51.641Z,9.21
2019-04-04T06:39:20.140Z,10.07
2019-04-04T06:41:48.736Z,10.13
2019-04-04T06:44:17.383Z,10.51
2019-04-04T06:46:45.995Z,10.96
2019-04-04T06:49:14.880Z,11.50
2019-04-04T06:51:46.081Z,11.01
2019-04-04T06:54:13.711Z,9.74
2019-04-04T06:56:42.382Z,9.26
2019-04-04T06:59:12.187Z,9.28
2019-04-04T07:01:40.945Z,9.72
2019-04-04T07:04:09.618Z,8.95
2019-04-04T07:06:38.286Z,9.28
2019-04-04T07:09:08.720Z,9.15
2019-04-04T07:11:37.653Z,9.34
2019-04-04T07:14:06.219Z,9.45
2019-04-04T07:16:36.930Z,9.13
2019-04-04T07:19:07.834Z,9.55
2019-04-04T07:21:35.690Z,9.53
2019-04-04T07:24:04.318Z,9.51
2019-04-04T07:26:32.841Z,9.71
2019-04-04T07:29:01.482Z,10.06
2019-04-04T07:31:33.124Z,10.16
2019-04-04T07:34:00.514Z,10.44
2019-04-04T07:36:29.010Z,10.48
2019-04-04T07:39:00.015Z,10.31
2019-04-04T07:41:28.049Z,10.45
2019-04-04T07:43:58.597Z,10.76
2019-04-04T07:46:27.928Z,11.16
2019-04-04T07:48:56.529Z,10.99
2019-04-04T07:51:25.106Z,10.81
2019-04-04T07:53:53.732Z,10.97
2019-04-04T07:56:22.484Z,10.93
2019-04-04T07:58:51.040Z,10.85
2019-04-04T08:01:19.605Z,10.40
2019-04-04T08:04:42.707Z,10.37
2019-04-04T08:07:11.338Z,10.27
2019-04-04T08:09:39.897Z,10.58
2019-04-04T08:12:08.525Z,11.01
2019-04-04T08:14:37.246Z,11.51
2019-04-04T08:17:05.866Z,11.63
2019-04-04T08:19:34.501Z,12.08
2019-04-04T08:22:03.101Z,12.02
2019-04-04T08:24:31.782Z,12.42
2019-04-04T08:27:00.307Z,12.87
2019-04-04T08:29:28.937Z,13.04
2019-04-04T08:31:57.614Z,13.78
2019-04-04T08:34:26.217Z,14.23
2019-04-04T08:36:54.781Z,13.81
2019-04-04T08:42:28.338Z,12.58
2019-04-04T08:44:56.789Z,12.82
2019-04-04T08:47:26.079Z,13.91
2019-04-04T08:49:54.754Z,14.37
2019-04-04T08:52:23.445Z,14.71
2019-04-04T08:54:51.945Z,14.66
2019-04-04T08:57:20.482Z,13.87
2019-04-04T08:59:49.116Z,14.71
2019-04-04T09:02:17.838Z,14.96
2019-04-04T09:04:46.362Z,14.45
2019-04-04T09:07:14.998Z,13.79
2019-04-04T09:09:43.640Z,14.69
2019-04-04T09:12:12.175Z,15.44
2019-04-04T09:14:41.331Z,16.08
2019-04-04T09:17:10.005Z,15.73
2019-04-04T09:19:38.827Z,15.37
2019-04-04T09:22:10.800Z,15.07
2019-04-04T09:24:37.822Z,13.64
2019-04-04T09:27:06.739Z,13.55
2019-04-04T09:29:35.280Z,14.40
2019-04-04T09:32:03.855Z,14.96
2019-04-04T09:34:32.527Z,15.54
2019-04-04T09:37:01.163Z,15.01
2019-04-04T09:39:29.729Z,14.87
2019-04-04T09:41:58.426Z,14.36
2019-04-04T09:44:27.059Z,13.68
2019-04-04T09:47:05.413Z,14.67
2019-04-04T09:49:26.069Z,15.30
2019-04-04T09:51:54.574Z,15.92
2019-04-04T09:54:23.224Z,15.43
2019-04-04T09:56:51.914Z,14.75
2019-04-04T09:59:20.558Z,14.67
2019-04-04T10:01:49.192Z,14.80
2019-04-04T10:04:18.131Z,15.27
2019-04-04T10:06:46.772Z,14.99
2019-04-04T10:09:16.328Z,15.44
2019-04-04T10:11:45.614Z,14.93
2019-04-04T10:14:14.260Z,15.01
2019-04-04T10:16:42.894Z,15.01
2019-04-04T10:19:11.491Z,14.98
2019-04-04T10:21:40.060Z,14.82
2019-04-04T10:24:08.698Z,15.00
2019-04-04T10:26:37.252Z,15.02
2019-04-04T10:29:05.884Z,14.98
2019-04-04T10:31:34.521Z,15.10
2019-04-04T10:34:03.226Z,14.99
2019-04-04T10:36:34.002Z,14.85
2019-04-04T10:39:02.648Z,14.61
2019-04-04T10:41:31.326Z,14.97
2019-04-04T10:43:59.827Z,14.60
2019-04-04T10:46:28.326Z,14.35
2019-04-04T10:48:57.066Z,14.43
2019-04-04T10:51:25.703Z,14.72
2019-04-04T10:53:54.193Z,14.24
2019-04-04T10:56:22.869Z,14.61
2019-04-04T10:58:51.515Z,14.55
2019-04-04T11:01:20.162Z,14.53
2019-04-04T11:03:48.764Z,14.95
2019-04-04T11:06:17.427Z,15.27
2019-04-04T11:08:45.904Z,15.40
2019-04-04T11:11:14.786Z,15.55
2019-04-04T11:13:43.423Z,15.89
2019-04-04T11:16:12.051Z,15.93
2019-04-04T11:18:40.578Z,15.69
2019-04-04T11:21:09.132Z,16.11
2019-04-04T11:23:37.768Z,15.98
2019-04-04T11:26:06.453Z,15.93
2019-04-04T11:28:35.027Z,16.33
2019-04-04T11:31:03.763Z,16.52
2019-04-04T11:33:32.446Z,15.57
2019-04-04T11:36:01.079Z,15.18
2019-04-04T11:38:29.578Z,15.86
2019-04-04T11:40:58.139Z,15.77
2019-04-04T11:43:26.770Z,15.72
2019-04-04T11:45:55.324Z,15.55
2019-04-04T11:48:23.996Z,15.57
2019-04-04T11:50:52.630Z,15.25
2019-04-04T11:53:21.121Z,15.15
2019-04-04T11:55:49.897Z,15.23
2019-04-04T11:58:18.535Z,14.73
2019-04-04T12:00:54.882Z,14.87
2019-04-04T12:03:23.381Z,14.87
2019-04-04T12:05:51.871Z,14.95
2019-04-04T12:08:20.532Z,14.88
2019-04-04T12:10:49.170Z,15.02
2019-04-04T12:13:17.668Z,15.06
2019-04-04T12:15:46.271Z,15.12
2019-04-04T12:18:14.900Z,14.92
2019-04-04T12:20:43.660Z,15.12
2019-04-04T12:23:12.384Z,15.09
2019-04-04T12:25:41.015Z,15.04
2019-04-04T12:28:09.585Z,15.37
2019-04-04T12:30:38.190Z,15.47
2019-04-04T12:33:06.820Z,15.26
2019-04-04T12:35:35.450Z,15.20
2019-04-04T12:38:04.065Z,15.08
2019-04-04T12:40:32.567Z,15.12
2019-04-04T12:43:01.202Z,15.01
2019-04-04T12:45:29.877Z,14.84
2019-04-04T12:47:58.389Z,15.06
2019-04-04T12:50:26.976Z,14.95
2019-04-04T12:52:55.643Z,14.89
2019-04-04T12:55:24.277Z,14.91
2019-04-04T12:57:52.842Z,15.06
2019-04-04T13:00:21.638Z,15.19
2019-04-04T13:02:50.274Z,15.23
2019-04-04T13:05:18.905Z,15.42
2019-04-04T13:07:47.590Z,15.52
2019-04-04T13:10:16.481Z,15.72
2019-04-04T13:12:44.974Z,15.78
2019-04-04T13:15:15.195Z,15.50
2019-04-04T13:17:43.827Z,15.32
2019-04-04T13:20:12.760Z,15.16
2019-04-04T13:22:41.291Z,15.09
2019-04-04T13:25:10.328Z,14.88
2019-04-04T13:27:38.978Z,14.58
2019-04-04T13:30:10.349Z,14.33
2019-04-04T13:32:39.192Z,14.25
2019-04-04T13:35:08.043Z,13.89
2019-04-04T13:37:36.707Z,13.88
2019-04-04T13:40:06.931Z,13.93
2019-04-04T13:42:35.551Z,13.98
2019-04-04T13:45:05.969Z,14.08
2019-04-04T13:47:38.219Z,14.19
2019-04-04T13:50:07.110Z,14.40
2019-04-04T13:52:35.814Z,14.57
2019-04-04T13:55:06.024Z,14.73
2019-04-04T13:57:34.774Z,14.87
2019-04-04T14:00:05.241Z,14.98
2019-04-04T14:02:33.875Z,15.17
2019-04-04T14:05:09.693Z,15.31
2019-04-04T14:07:32.841Z,15.34
2019-04-04T14:10:01.346Z,15.45
2019-04-04T14:12:30.064Z,15.56
2019-04-04T14:14:58.822Z,15.58
2019-04-04T14:17:27.340Z,15.44
2019-04-04T14:19:55.890Z,15.52
2019-04-04T14:22:24.527Z,15.54
2019-04-04T14:24:53.017Z,15.53
2019-04-04T14:27:21.656Z,15.68
2019-04-04T14:29:50.281Z,15.68
2019-04-04T14:32:21.136Z,15.75
2019-04-04T14:34:49.222Z,15.66
2019-04-04T14:37:17.882Z,15.61
2019-04-04T14:39:46.587Z,15.68
2019-04-04T14:42:15.223Z,15.63
2019-04-04T14:44:43.791Z,15.58
2019-04-04T14:47:13.927Z,15.57
2019-04-04T14:49:44.996Z,15.50
2019-04-04T14:52:13.136Z,15.57
2019-04-04T14:54:41.658Z,15.58
2019-04-04T14:57:10.296Z,15.51
2019-04-04T14:59:38.938Z,15.35
2019-04-04T15:02:07.743Z,15.36
2019-04-04T15:04:36.316Z,15.15
2019-04-04T15:07:04.980Z,15.12
2019-04-04T15:09:33.893Z,15.18
2019-04-04T15:12:02.394Z,15.22
2019-04-04T15:14:30.884Z,15.29
2019-04-04T15:16:59.751Z,15.23
2019-04-04T15:19:28.394Z,15.10
2019-04-04T15:21:56.886Z,15.15
2019-04-04T15:24:26.071Z,15.21
2019-04-04T15:26:54.701Z,15.26
2019-04-04T15:29:23.482Z,15.22
2019-04-04T15:31:52.057Z,15.10
2019-04-04T15:34:20.664Z,14.99
2019-04-04T15:36:49.317Z,14.79
2019-04-04T15:39:17.948Z,14.64
2019-04-04T15:41:46.728Z,14.59
2019-04-04T15:44:15.383Z,14.30
2019-04-04T15:46:43.989Z,14.15
2019-04-04T15:49:12.591Z,14.07
2019-04-04T15:51:41.223Z,13.98
2019-04-04T15:54:09.857Z,13.90
2019-04-04T15:56:38.450Z,13.82
2019-04-04T15:59:07.668Z,13.69
2019-04-04T16:01:36.439Z,13.67
2019-04-04T16:04:05.123Z,13.57
2019-04-04T16:06:33.682Z,13.51
2019-04-04T16:09:02.257Z,13.47
2019-04-04T16:11:30.935Z,13.42
2019-04-04T16:13:59.597Z,13.35
2019-04-04T16:16:28.099Z,13.35
2019-04-04T16:18:56.696Z,13.25
2019-04-04T16:21:25.339Z,13.22
2019-04-04T16:23:53.843Z,13.19
2019-04-04T16:26:22.528Z,13.15
2019-04-04T16:28:51.169Z,13.14
2019-04-04T16:31:19.739Z,13.09
2019-04-04T16:33:48.499Z,13.03
2019-04-04T16:36:17.130Z,13.01
2019-04-04T16:38:45.766Z,12.87
2019-04-04T16:41:14.688Z,12.86
2019-04-04T16:43:43.830Z,12.82
2019-04-04T16:46:12.469Z,12.66
2019-04-04T16:48:44.105Z,12.64
2019-04-04T16:51:12.676Z,12.61
2019-04-04T16:53:41.321Z,12.49
2019-04-04T16:56:09.999Z,12.40
2019-04-04T16:58:38.637Z,12.36
2019-04-04T17:01:07.198Z,12.22
2019-04-04T17:03:35.885Z,12.16
2019-04-04T17:06:04.622Z,12.16
2019-04-04T17:08:33.120Z,12.13
2019-04-04T17:11:01.792Z,12.04
2019-04-04T17:13:30.438Z,12.02
2019-04-04T17:15:59.185Z,11.94
2019-04-04T17:18:27.927Z,11.88
2019-04-04T17:20:56.564Z,11.84
2019-04-04T17:23:25.196Z,11.71
2019-04-04T17:25:53.694Z,11.63
2019-04-04T17:28:22.547Z,11.56
2019-04-04T17:30:51.911Z,11.53
2019-04-04T17:33:20.835Z,11.50
2019-04-04T17:35:49.712Z,11.45
2019-04-04T17:38:18.412Z,11.37
2019-04-04T17:40:47.041Z,11.29
2019-04-04T17:43:16.052Z,11.27
2019-04-04T17:45:44.978Z,11.26
2019-04-04T17:48:14.110Z,11.14
2019-04-04T17:50:42.664Z,11.09
2019-04-04T17:53:11.280Z,11.05
2019-04-04T17:55:40.169Z,10.98
2019-04-04T17:58:09.295Z,10.94
2019-04-04T18:00:37.930Z,10.92
2019-04-04T18:03:06.569Z,10.84
2019-04-04T18:05:35.230Z,10.83
2019-04-04T18:08:03.951Z,10.79
2019-04-04T18:10:32.522Z,10.75
2019-04-04T18:13:01.058Z,10.71
2019-04-04T18:15:29.787Z,10.65
2019-04-04T18:17:58.415Z,10.63
2019-04-04T18:20:27.017Z,10.57
2019-04-04T18:22:55.645Z,10.53
2019-04-04T18:25:24.276Z,10.50
2019-04-04T18:27:52.822Z,10.45
2019-04-04T18:30:21.553Z,10.43
2019-04-04T18:32:50.183Z,10.38
2019-04-04T18:35:18.783Z,10.35
2019-04-04T18:37:47.362Z,10.31
2019-04-04T18:40:16.277Z,10.26
2019-04-04T18:42:53.170Z,10.20
2019-04-04T18:45:15.410Z,10.12
2019-04-04T18:47:43.914Z,10.07
2019-04-04T18:50:14.123Z,10.02
2019-04-04T18:52:42.765Z,10.02
2019-04-04T18:55:19.631Z,10.01
2019-04-04T18:57:41.818Z,9.99
2019-04-04T19:00:12.147Z,9.96
2019-04-04T19:02:41.422Z,9.93
2019-04-04T19:05:11.050Z,9.88
2019-04-04T19:07:40.091Z,9.87
2019-04-04T19:10:09.343Z,9.83
2019-04-04T19:12:38.050Z,9.85
2019-04-04T19:15:07.876Z,9.81
2019-04-04T19:17:37.041Z,9.80
2019-04-04T19:20:10.126Z,9.73
2019-04-04T19:22:39.086Z,9.69
2019-04-04T19:25:08.516Z,9.67
2019-04-04T19:27:37.354Z,9.62
2019-04-04T19:30:11.133Z,9.63
2019-04-04T19:32:39.729Z,9.66
2019-04-04T19:35:09.366Z,9.61
2019-04-04T19:37:38.011Z,9.61
2019-04-04T19:40:08.650Z,9.61
2019-04-04T19:42:37.282Z,9.56
2019-04-04T19:45:10.519Z,9.54
2019-04-04T19:47:39.116Z,9.46
2019-04-04T19:50:10.615Z,9.41
2019-04-04T19:52:39.621Z,9.41
2019-04-04T19:55:08.384Z,9.40
2019-04-04T19:57:37.049Z,9.38
2019-04-04T20:00:08.216Z,9.34
2019-04-04T20:02:36.848Z,9.32
2019-04-04T20:05:06.569Z,9.30
2019-04-04T20:07:35.099Z,9.30
2019-04-04T20:10:05.504Z,9.26
2019-04-04T20:12:34.123Z,9.25
2019-04-04T20:15:02.707Z,9.23
2019-04-04T20:17:31.338Z,9.20
2019-04-04T20:19:59.966Z,9.19
2019-04-04T20:22:28.778Z,9.16
2019-04-04T20:24:57.668Z,9.13
2019-04-04T20:27:26.278Z,9.15
2019-04-04T20:29:54.949Z,9.08
2019-04-04T20:32:23.647Z,9.09
2019-04-04T20:34:52.137Z,9.09
2019-04-04T20:37:20.717Z,9.07
2019-04-04T20:39:49.350Z,9.07
2019-04-04T20:42:18.343Z,9.04
2019-04-04T20:44:46.834Z,9.03
2019-04-04T20:47:15.490Z,9.03
2019-04-04T20:49:44.087Z,8.93
2019-04-04T20:52:12.756Z,8.85
2019-04-04T20:54:41.355Z,8.87
2019-04-04T20:57:09.876Z,8.80
2019-04-04T20:59:38.499Z,8.79
2019-04-04T21:02:06.987Z,8.80
2019-04-04T21:04:35.653Z,8.71
2019-04-04T21:07:04.288Z,8.72
2019-04-04T21:09:32.775Z,8.65
2019-04-04T21:12:01.463Z,8.62
2019-04-04T21:14:30.073Z,8.54
2019-04-04T21:16:58.739Z,8.51
2019-04-04T21:19:27.220Z,8.50
2019-04-04T21:21:55.721Z,8.52
2019-04-04T21:24:24.379Z,8.46
2019-04-04T21:26:53.030Z,8.45
2019-04-04T21:29:21.524Z,8.44
2019-04-04T21:31:50.059Z,8.41
2019-04-04T21:34:18.684Z,8.43
2019-04-04T21:36:47.316Z,8.41
2019-04-04T21:39:15.847Z,8.39
2019-04-04T21:41:44.483Z,8.35
2019-04-04T21:44:12.969Z,8.33
2019-04-04T21:46:41.791Z,8.27
2019-04-04T21:49:10.421Z,8.23
2019-04-04T21:51:39.040Z,8.15
2019-04-04T21:54:07.576Z,8.13
2019-04-04T21:56:36.136Z,8.10
2019-04-04T21:59:04.763Z,8.11
2019-04-04T22:01:33.554Z,8.05
2019-04-04T22:04:02.249Z,8.06
2019-04-04T22:06:30.876Z,8.02
2019-04-04T22:08:59.549Z,8.02
2019-04-04T22:11:28.188Z,8.00
2019-04-04T22:13:56.671Z,7.98
2019-04-04T22:16:25.266Z,7.91
2019-04-04T22:18:53.947Z,7.92
2019-04-04T22:21:22.441Z,7.88
2019-04-04T22:23:51.097Z,7.85
2019-04-04T22:26:19.723Z,7.80
2019-04-04T22:28:48.210Z,7.82
2019-04-04T22:31:17.101Z,7.83
2019-04-04T22:33:45.727Z,7.79
2019-04-04T22:36:14.347Z,7.76
2019-04-04T22:38:42.865Z,7.75
2019-04-04T22:41:11.353Z,7.72
2019-04-04T22:43:39.995Z,7.77
2019-04-04T22:46:08.669Z,7.80
2019-04-04T22:48:37.161Z,7.82
2019-04-04T22:51:05.712Z,7.82
2019-04-04T22:53:34.384Z,7.82
2019-04-04T22:56:03.008Z,7.81
2019-04-04T22:58:31.496Z,7.82
2019-04-04T23:01:00.162Z,7.83
2019-04-04T23:03:29.624Z,7.75
2019-04-04T23:05:58.249Z,7.75
2019-04-04T23:08:26.912Z,7.73
2019-04-04T23:10:55.537Z,7.70
2019-04-04T23:13:24.028Z,7.68
2019-04-04T23:15:52.546Z,7.63
2019-04-04T23:18:21.172Z,7.62
2019-04-04T23:20:49.797Z,7.62
2019-04-04T23:23:18.325Z,7.55
2019-04-04T23:25:46.817Z,7.54
2019-04-04T23:28:15.445Z,7.52
2019-04-04T23:30:44.124Z,7.53
2019-04-04T23:33:12.693Z,7.46
2019-04-04T23:35:41.519Z,7.33
2019-04-04T23:38:10.337Z,7.28
2019-04-04T23:40:38.824Z,7.21
2019-04-04T23:43:07.446Z,7.19
2019-04-04T23:45:36.106Z,7.19
2019-04-04T23:48:04.659Z,7.16
2019-04-04T23:50:33.162Z,7.09
2019-04-04T23:53:01.833Z,7.05
2019-04-04T23:55:30.590Z,7.01
2019-04-04T23:57:59.024Z,6.92
